Terminal Aerodrome Forecast
Issued by NWS

Home | Current Version | Previous Version | Text Only | Print | Product List | Glossary Off
Versions: 1 2 3 4 5 6 7 8 9 10 11 12 13 14 15 16 17 18

000
FTUS43 KABR 111312 AAB
TAFATY
TAF AMD
KATY 111312Z 1113/1212 31020G26KT P6SM VCSH OVC025
      TEMPO 1113/1115 3SM -SN BR OVC012
     FM111700 34026G36KT P6SM OVC015
     FM120000 33017G24KT P6SM SCT025
     FM120400 33010KT P6SM SCT250
     FM120900 30007KT P6SM BKN025=

USA.gov is the U.S. government's official web portal to all federal, state and local government web resources and services.